メインページ
METAR-TAF:

METAR-TAF

空港 :

クウェート国際空港

クウェート, クウェート

緯度: 29-13N, 経度: 047-59E, 海抜: 55m

現時点の気象観測

当レポートは29分前の00:00(UTC)に作成
南西の風 5kt
気温 19°C
湿度 100%
気圧 1014 hPa
視程: 3500m
高度3000ftの雲は散在している, 積乱雲.
高度8000ftの曇り
激しい雷雨, 雨

METAR: OKBK 150000Z 22005KT 3500 TSRA SCT030CB OVC080 19/19 Q1014 RETSRA NOSIG

時間: 03:29 (00:29 UTC)

予報

当レポートは1時間44分前の22:45(UTC)に作成
予報は15日の 00時(UTC)から 16日の 06時(UTC)まで有効
の風 12kt、最大25ktの突風を伴う
視程: 6000m
高度2000ftの雲はほとんどない
高度8000ftの千切れ雲あり
15日の 00時(UTC)から 15日の 15時(UTC)まで一時的に
視程: 3000m
高度3000ftの雲は散在している, 積乱雲.
確率 30% :
15日の 00時(UTC)から 15日の 06時(UTC)まで一時的に
視程: 0800m

TAF: OKBK 142245Z 1500/1606 18012G25KT 6000 FEW020 BKN080 TEMPO 1500/1515 3000 TSRA/SHRA SCT030CB PROB30 TEMPO 1500/1506 0800

4,000以上の空港の気象観測と天気予報(METAR報とTAF報)

利用可能な観測所は地図上に黄色い丸と赤い丸で示す。

丸の上にカーソルを重ねると観測所名を参照できる。

次にクリックすると気象観測と天気予報を参照できる。

マップの切り替え:黒色「×」印の緑ボタンをクリックして拡大、「-」印の緑ボタンをクリックして縮小、緑色の三角印をクリックして隣りの地図に切り替え


METAR-TAF: